Terminal Aerodrome Forecast
Issued by NWS

Home | Current Version | Previous Version | Text Only | Print | Product List | Glossary On
Versions: 1 2 3 4 5 6 7 8 9 10 11 12 13 14 15 16
000
FTUS43 KFGF 241855 AAA
TAFDVL
TAF AMD
KDVL 241855Z 2419/2518 15012G17KT P6SM OVC019
     FM242300 15013G19KT P6SM VCTS OVC035CB
      TEMPO 2423/2501 4SM -TSRA OVC025CB
     FM250200 17009KT P6SM BKN140
     FM250800 23007KT P6SM SCT080
     FM251000 26008KT P6SM BKN015
     FM251200 31012KT P6SM VCSH OVC006=

USA.gov is the U.S. government's official web portal to all federal, state and local government web resources and services.